sensor_id;sensor_type;location;lat;lon;timestamp;pressure;altitude;pressure_sealevel;temperature;humidity
30421;BME280;17218;54.070;10.012;2022-09-20T00:02:06;101555.03;;;7.73;100.00
30421;BME280;17218;54.070;10.012;2022-09-20T00:04:33;101568.69;;;7.68;100.00
30421;BME280;17218;54.070;10.012;2022-09-20T00:06:59;101560.94;;;7.68;100.00
30421;BME280;17218;54.070;10.012;2022-09-20T00:09:28;101572.03;;;7.62;100.00
30421;BME280;17218;54.070;10.012;2022-09-20T00:11:54;101568.44;;;7.54;100.00
30421;BME280;17218;54.070;10.012;2022-09-20T00:14:21;101565.88;;;7.54;100.00
30421;BME280;17218;54.070;10.012;2022-09-20T00:16:47;101572.56;;;7.44;100.00
30421;BME280;17218;54.070;10.012;2022-09-20T00:19:17;101581.97;;;7.42;100.00
30421;BME280;17218;54.070;10.012;2022-09-20T00:21:45;101576.78;;;7.40;100.00
30421;BME280;17218;54.070;10.012;2022-09-20T00:24:11;101580.19;;;7.37;100.00
30421;BME280;17218;54.070;10.012;2022-09-20T00:26:39;101585.22;;;7.31;100.00
30421;BME280;17218;54.070;10.012;2022-09-20T00:29:06;101590.34;;;7.30;100.00
30421;BME280;17218;54.070;10.012;2022-09-20T00:31:33;101584.25;;;7.26;100.00
30421;BME280;17218;54.070;10.012;2022-09-20T00:34:01;101579.97;;;7.26;100.00
30421;BME280;17218;54.070;10.012;2022-09-20T00:36:45;101582.50;;;7.25;100.00
30421;BME280;17218;54.070;10.012;2022-09-20T00:39:13;101588.50;;;7.24;100.00
30421;BME280;17218;54.070;10.012;2022-09-20T00:41:42;101591.06;;;7.24;100.00
30421;BME280;17218;54.070;10.012;2022-09-20T00:47:24;101593.78;;;7.30;100.00
30421;BME280;17218;54.070;10.012;2022-09-20T00:49:55;101584.31;;;7.29;100.00
30421;BME280;17218;54.070;10.012;2022-09-20T00:52:23;101598.09;;;7.31;100.00
30421;BME280;17218;54.070;10.012;2022-09-20T00:54:51;101600.69;;;7.33;100.00
30421;BME280;17218;54.070;10.012;2022-09-20T00:57:20;101597.28;;;7.34;100.00
30421;BME280;17218;54.070;10.012;2022-09-20T00:59:49;101596.50;;;7.38;100.00
30421;BME280;17218;54.070;10.012;2022-09-20T01:02:20;101606.00;;;7.40;100.00
30421;BME280;17218;54.070;10.012;2022-09-20T01:04:48;101610.44;;;7.46;100.00
30421;BME280;17218;54.070;10.012;2022-09-20T01:07:18;101613.06;;;7.51;100.00
30421;BME280;17218;54.070;10.012;2022-09-20T01:09:47;101607.97;;;7.53;100.00
30421;BME280;17218;54.070;10.012;2022-09-20T01:12:16;101614.84;;;7.54;100.00
30421;BME280;17218;54.070;10.012;2022-09-20T01:14:46;101609.72;;;7.55;100.00
30421;BME280;17218;54.070;10.012;2022-09-20T01:17:16;101617.50;;;7.57;100.00
30421;BME280;17218;54.070;10.012;2022-09-20T01:19:47;101612.25;;;7.52;100.00
30421;BME280;17218;54.070;10.012;2022-09-20T01:22:22;101601.81;;;7.46;100.00
30421;BME280;17218;54.070;10.012;2022-09-20T01:24:56;101605.16;;;7.42;100.00
30421;BME280;17218;54.070;10.012;2022-09-20T01:27:38;101611.88;;;7.33;100.00
30421;BME280;17218;54.070;10.012;2022-09-20T01:30:07;101610.97;;;7.31;100.00
30421;BME280;17218;54.070;10.012;2022-09-20T01:32:45;101609.16;;;7.25;100.00
30421;BME280;17218;54.070;10.012;2022-09-20T01:35:16;101617.69;;;7.23;100.00
30421;BME280;17218;54.070;10.012;2022-09-20T01:38:07;101614.97;;;7.16;100.00
30421;BME280;17218;54.070;10.012;2022-09-20T01:40:42;101615.88;;;7.17;100.00
30421;BME280;17218;54.070;10.012;2022-09-20T01:43:19;101623.44;;;7.11;100.00
30421;BME280;17218;54.070;10.012;2022-09-20T01:45:49;101620.91;;;7.12;100.00
30421;BME280;17218;54.070;10.012;2022-09-20T01:48:24;101631.13;;;7.08;100.00
30421;BME280;17218;54.070;10.012;2022-09-20T01:51:09;101637.16;;;7.08;100.00
30421;BME280;17218;54.070;10.012;2022-09-20T01:57:03;101637.81;;;6.99;100.00
30421;BME280;17218;54.070;10.012;2022-09-20T02:00:00;101638.63;;;6.97;100.00
30421;BME280;17218;54.070;10.012;2022-09-20T02:02:55;101642.66;;;6.85;100.00
30421;BME280;17218;54.070;10.012;2022-09-20T02:05:40;101639.16;;;6.83;100.00
30421;BME280;17218;54.070;10.012;2022-09-20T02:11:31;101640.75;;;6.76;100.00
30421;BME280;17218;54.070;10.012;2022-09-20T02:14:04;101640.66;;;6.73;100.00
30421;BME280;17218;54.070;10.012;2022-09-20T02:16:47;101638.16;;;6.76;100.00
30421;BME280;17218;54.070;10.012;2022-09-20T02:19:32;101658.66;;;6.72;100.00
30421;BME280;17218;54.070;10.012;2022-09-20T02:22:09;101647.53;;;6.73;100.00
30421;BME280;17218;54.070;10.012;2022-09-20T02:24:44;101659.59;;;6.75;100.00
30421;BME280;17218;54.070;10.012;2022-09-20T02:27:23;101646.84;;;6.80;100.00
30421;BME280;17218;54.070;10.012;2022-09-20T02:30:03;101650.19;;;6.77;100.00
30421;BME280;17218;54.070;10.012;2022-09-20T02:32:52;101658.84;;;6.79;100.00
30421;BME280;17218;54.070;10.012;2022-09-20T02:35:45;101664.19;;;6.89;100.00
30421;BME280;17218;54.070;10.012;2022-09-20T02:38:46;101659.13;;;6.94;100.00
30421;BME280;17218;54.070;10.012;2022-09-20T02:41:35;101665.22;;;6.97;100.00
30421;BME280;17218;54.070;10.012;2022-09-20T02:44:08;101666.22;;;7.02;100.00
30421;BME280;17218;54.070;10.012;2022-09-20T02:46:44;101674.03;;;7.07;100.00
30421;BME280;17218;54.070;10.012;2022-09-20T02:49:17;101675.88;;;7.11;100.00
30421;BME280;17218;54.070;10.012;2022-09-20T02:51:51;101671.63;;;7.13;100.00
30421;BME280;17218;54.070;10.012;2022-09-20T02:54:28;101672.56;;;7.17;100.00
30421;BME280;17218;54.070;10.012;2022-09-20T02:57:02;101667.50;;;7.22;100.00
30421;BME280;17218;54.070;10.012;2022-09-20T02:59:37;101678.56;;;7.18;100.00
30421;BME280;17218;54.070;10.012;2022-09-20T03:02:09;101676.88;;;7.20;100.00
30421;BME280;17218;54.070;10.012;2022-09-20T03:04:52;101676.06;;;7.21;100.00
30421;BME280;17218;54.070;10.012;2022-09-20T03:07:32;101681.25;;;7.22;100.00
30421;BME280;17218;54.070;10.012;2022-09-20T03:10:12;101687.31;;;7.24;100.00
30421;BME280;17218;54.070;10.012;2022-09-20T03:12:51;101682.91;;;7.20;100.00
30421;BME280;17218;54.070;10.012;2022-09-20T03:15:28;101693.25;;;7.22;100.00
30421;BME280;17218;54.070;10.012;2022-09-20T03:18:05;101695.88;;;7.23;100.00
30421;BME280;17218;54.070;10.012;2022-09-20T03:20:40;101688.03;;;7.19;100.00
30421;BME280;17218;54.070;10.012;2022-09-20T03:23:25;101694.13;;;7.22;100.00
30421;BME280;17218;54.070;10.012;2022-09-20T03:26:06;101691.50;;;7.19;100.00
30421;BME280;17218;54.070;10.012;2022-09-20T03:28:52;101689.81;;;7.21;100.00
30421;BME280;17218;54.070;10.012;2022-09-20T03:31:31;101700.19;;;7.24;100.00
30421;BME280;17218;54.070;10.012;2022-09-20T03:34:06;101699.22;;;7.19;100.00
30421;BME280;17218;54.070;10.012;2022-09-20T03:36:48;101706.13;;;7.20;100.00
30421;BME280;17218;54.070;10.012;2022-09-20T03:39:30;101693.19;;;7.19;100.00
30421;BME280;17218;54.070;10.012;2022-09-20T03:42:12;101695.81;;;7.20;100.00
30421;BME280;17218;54.070;10.012;2022-09-20T03:45:03;101700.88;;;7.15;100.00
30421;BME280;17218;54.070;10.012;2022-09-20T03:47:51;101695.63;;;7.12;100.00
30421;BME280;17218;54.070;10.012;2022-09-20T03:50:36;101699.81;;;7.07;100.00
30421;BME280;17218;54.070;10.012;2022-09-20T03:53:36;101698.94;;;7.07;100.00
30421;BME280;17218;54.070;10.012;2022-09-20T03:56:34;101698.88;;;7.03;100.00
30421;BME280;17218;54.070;10.012;2022-09-20T03:59:17;101695.19;;;6.94;100.00
30421;BME280;17218;54.070;10.012;2022-09-20T04:02:04;101701.16;;;6.91;100.00
30421;BME280;17218;54.070;10.012;2022-09-20T04:04:39;101696.81;;;6.88;100.00
30421;BME280;17218;54.070;10.012;2022-09-20T04:07:15;101701.91;;;6.85;100.00
30421;BME280;17218;54.070;10.012;2022-09-20T04:10:10;101706.88;;;6.79;100.00
30421;BME280;17218;54.070;10.012;2022-09-20T04:12:48;101697.38;;;6.75;100.00
30421;BME280;17218;54.070;10.012;2022-09-20T04:15:28;101704.19;;;6.73;100.00
30421;BME280;17218;54.070;10.012;2022-09-20T04:18:00;101704.03;;;6.66;100.00
30421;BME280;17218;54.070;10.012;2022-09-20T04:20:34;101706.50;;;6.62;100.00
30421;BME280;17218;54.070;10.012;2022-09-20T04:23:11;101705.41;;;6.53;100.00
30421;BME280;17218;54.070;10.012;2022-09-20T04:25:43;101717.50;;;6.56;100.00
30421;BME280;17218;54.070;10.012;2022-09-20T04:28:15;101717.38;;;6.51;100.00
30421;BME280;17218;54.070;10.012;2022-09-20T04:30:42;101719.88;;;6.48;100.00
30421;BME280;17218;54.070;10.012;2022-09-20T04:33:17;101711.13;;;6.41;100.00
30421;BME280;17218;54.070;10.012;2022-09-20T04:35:51;101703.22;;;6.34;100.00
30421;BME280;17218;54.070;10.012;2022-09-20T04:38:39;101713.47;;;6.32;100.00
30421;BME280;17218;54.070;10.012;2022-09-20T04:41:19;101710.75;;;6.27;100.00
30421;BME280;17218;54.070;10.012;2022-09-20T04:44:19;101718.38;;;6.23;100.00
30421;BME280;17218;54.070;10.012;2022-09-20T04:47:11;101716.47;;;6.15;100.00
30421;BME280;17218;54.070;10.012;2022-09-20T04:50:09;101713.72;;;6.09;100.00
30421;BME280;17218;54.070;10.012;2022-09-20T04:55:53;101713.94;;;5.86;100.00
30421;BME280;17218;54.070;10.012;2022-09-20T05:02:16;101718.31;;;5.90;100.00
30421;BME280;17218;54.070;10.012;2022-09-20T05:05:37;101728.53;;;5.87;100.00
30421;BME280;17218;54.070;10.012;2022-09-20T05:08:37;101735.31;;;5.85;100.00
30421;BME280;17218;54.070;10.012;2022-09-20T05:11:40;101738.59;;;5.79;100.00
30421;BME280;17218;54.070;10.012;2022-09-20T05:14:23;101734.31;;;5.80;100.00
30421;BME280;17218;54.070;10.012;2022-09-20T05:17:06;101737.78;;;5.80;100.00
30421;BME280;17218;54.070;10.012;2022-09-20T05:19:44;101740.31;;;5.79;100.00
30421;BME280;17218;54.070;10.012;2022-09-20T05:22:40;101736.81;;;5.77;100.00
30421;BME280;17218;54.070;10.012;2022-09-20T05:25:37;101740.25;;;5.77;100.00
30421;BME280;17218;54.070;10.012;2022-09-20T05:28:07;101746.25;;;5.78;100.00
30421;BME280;17218;54.070;10.012;2022-09-20T05:30:41;101752.31;;;5.80;100.00
30421;BME280;17218;54.070;10.012;2022-09-20T05:33:18;101752.31;;;5.80;100.00
30421;BME280;17218;54.070;10.012;2022-09-20T05:35:57;101752.28;;;5.78;100.00
30421;BME280;17218;54.070;10.012;2022-09-20T05:38:31;101759.97;;;5.77;100.00
30421;BME280;17218;54.070;10.012;2022-09-20T05:41:10;101759.97;;;5.77;100.00
30421;BME280;17218;54.070;10.012;2022-09-20T05:43:55;101762.63;;;5.80;100.00
30421;BME280;17218;54.070;10.012;2022-09-20T05:46:34;101767.03;;;5.84;100.00
30421;BME280;17218;54.070;10.012;2022-09-20T05:49:11;101769.50;;;5.81;100.00
30421;BME280;17218;54.070;10.012;2022-09-20T05:51:55;101768.84;;;5.88;100.00
30421;BME280;17218;54.070;10.012;2022-09-20T05:54:38;101773.28;;;5.94;100.00
30421;BME280;17218;54.070;10.012;2022-09-20T05:57:20;101767.41;;;5.98;100.00
30421;BME280;17218;54.070;10.012;2022-09-20T06:00:00;101773.47;;;6.00;100.00
30421;BME280;17218;54.070;10.012;2022-09-20T06:02:34;101782.25;;;6.07;100.00
30421;BME280;17218;54.070;10.012;2022-09-20T06:05:10;101783.38;;;6.15;100.00
30421;BME280;17218;54.070;10.012;2022-09-20T06:07:57;101787.84;;;6.23;100.00
30421;BME280;17218;54.070;10.012;2022-09-20T06:10:49;101780.13;;;6.23;100.00
30421;BME280;17218;54.070;10.012;2022-09-20T06:13:44;101776.81;;;6.27;100.00
30421;BME280;17218;54.070;10.012;2022-09-20T06:16:23;101785.63;;;6.37;100.00
30421;BME280;17218;54.070;10.012;2022-09-20T06:19:00;101789.38;;;6.48;100.00
30421;BME280;17218;54.070;10.012;2022-09-20T06:21:37;101791.34;;;6.59;100.00
30421;BME280;17218;54.070;10.012;2022-09-20T06:24:16;101784.00;;;6.73;100.00
30421;BME280;17218;54.070;10.012;2022-09-20T06:26:49;101783.41;;;6.83;100.00
30421;BME280;17218;54.070;10.012;2022-09-20T06:29:28;101793.91;;;6.91;100.00
30421;BME280;17218;54.070;10.012;2022-09-20T06:31:55;101802.63;;;6.96;100.00
30421;BME280;17218;54.070;10.012;2022-09-20T06:34:21;101798.41;;;7.00;100.00
30421;BME280;17218;54.070;10.012;2022-09-20T06:36:52;101805.34;;;7.02;100.00
30421;BME280;17218;54.070;10.012;2022-09-20T06:39:52;101816.06;;;7.20;100.00
30421;BME280;17218;54.070;10.012;2022-09-20T06:42:37;101819.13;;;7.42;100.00
30421;BME280;17218;54.070;10.012;2022-09-20T06:45:04;101822.09;;;7.57;100.00
30421;BME280;17218;54.070;10.012;2022-09-20T06:47:31;101832.00;;;7.79;100.00
30421;BME280;17218;54.070;10.012;2022-09-20T06:49:58;101829.63;;;7.90;100.00
30421;BME280;17218;54.070;10.012;2022-09-20T06:52:24;101830.75;;;8.01;100.00
30421;BME280;17218;54.070;10.012;2022-09-20T06:54:54;101838.78;;;8.15;100.00
30421;BME280;17218;54.070;10.012;2022-09-20T06:57:22;101834.78;;;8.30;100.00
30421;BME280;17218;54.070;10.012;2022-09-20T06:59:50;101834.22;;;8.45;100.00
30421;BME280;17218;54.070;10.012;2022-09-20T07:02:16;101837.81;;;8.53;100.00
30421;BME280;17218;54.070;10.012;2022-09-20T07:04:43;101831.13;;;8.62;100.00
30421;BME280;17218;54.070;10.012;2022-09-20T07:07:14;101826.97;;;8.71;100.00
30421;BME280;17218;54.070;10.012;2022-09-20T07:09:41;101836.56;;;8.79;100.00
30421;BME280;17218;54.070;10.012;2022-09-20T07:12:09;101838.50;;;8.89;100.00
30421;BME280;17218;54.070;10.012;2022-09-20T07:14:36;101848.13;;;9.00;100.00
30421;BME280;17218;54.070;10.012;2022-09-20T07:17:03;101847.44;;;9.10;100.00
30421;BME280;17218;54.070;10.012;2022-09-20T07:19:29;101849.28;;;9.19;100.00
30421;BME280;17218;54.070;10.012;2022-09-20T07:21:56;101851.19;;;9.29;100.00
30421;BME280;17218;54.070;10.012;2022-09-20T07:24:22;101848.75;;;9.39;100.00
30421;BME280;17218;54.070;10.012;2022-09-20T07:26:57;101857.47;;;9.46;100.00
30421;BME280;17218;54.070;10.012;2022-09-20T07:29:25;101861.09;;;9.57;100.00
30421;BME280;17218;54.070;10.012;2022-09-20T07:31:52;101853.50;;;9.70;100.00
30421;BME280;17218;54.070;10.012;2022-09-20T07:34:18;101857.16;;;9.83;100.00
30421;BME280;17218;54.070;10.012;2022-09-20T07:36:45;101853.81;;;9.92;100.00
30421;BME280;17218;54.070;10.012;2022-09-20T07:39:11;101848.75;;;10.01;100.00
30421;BME280;17218;54.070;10.012;2022-09-20T07:41:38;101854.03;;;10.09;100.00
30421;BME280;17218;54.070;10.012;2022-09-20T07:44:04;101862.72;;;10.14;100.00
30421;BME280;17218;54.070;10.012;2022-09-20T07:47:04;101868.06;;;10.26;100.00
30421;BME280;17218;54.070;10.012;2022-09-20T07:49:31;101862.16;;;10.37;100.00
30421;BME280;17218;54.070;10.012;2022-09-20T07:51:58;101866.56;;;10.47;100.00
30421;BME280;17218;54.070;10.012;2022-09-20T07:54:24;101867.56;;;10.56;100.00
30421;BME280;17218;54.070;10.012;2022-09-20T07:56:51;101865.03;;;10.62;100.00
30421;BME280;17218;54.070;10.012;2022-09-20T07:59:17;101873.78;;;10.73;100.00
30421;BME280;17218;54.070;10.012;2022-09-20T08:01:44;101875.59;;;10.79;100.00
30421;BME280;17218;54.070;10.012;2022-09-20T08:04:12;101873.09;;;10.90;100.00
30421;BME280;17218;54.070;10.012;2022-09-20T08:06:41;101885.28;;;11.01;100.00
30421;BME280;17218;54.070;10.012;2022-09-20T08:09:08;101876.75;;;11.13;100.00
30421;BME280;17218;54.070;10.012;2022-09-20T08:11:35;101881.13;;;11.18;100.00
30421;BME280;17218;54.070;10.012;2022-09-20T08:14:03;101872.50;;;11.23;100.00
30421;BME280;17218;54.070;10.012;2022-09-20T08:16:30;101876.09;;;11.37;100.00
30421;BME280;17218;54.070;10.012;2022-09-20T08:18:59;101880.47;;;11.48;100.00
30421;BME280;17218;54.070;10.012;2022-09-20T08:21:30;101876.25;;;11.59;100.00
30421;BME280;17218;54.070;10.012;2022-09-20T08:23:57;101870.25;;;11.69;100.00
30421;BME280;17218;54.070;10.012;2022-09-20T08:26:24;101870.28;;;11.77;100.00
30421;BME280;17218;54.070;10.012;2022-09-20T08:28:53;101866.88;;;11.91;100.00
30421;BME280;17218;54.070;10.012;2022-09-20T08:31:21;101872.16;;;12.02;100.00
30421;BME280;17218;54.070;10.012;2022-09-20T08:33:48;101876.56;;;12.12;100.00
30421;BME280;17218;54.070;10.012;2022-09-20T08:36:17;101866.22;;;12.22;100.00
30421;BME280;17218;54.070;10.012;2022-09-20T08:38:45;101866.22;;;12.25;100.00
30421;BME280;17218;54.070;10.012;2022-09-20T08:41:14;101861.06;;;12.33;100.00
30421;BME280;17218;54.070;10.012;2022-09-20T08:43:47;101863.63;;;12.25;100.00
30421;BME280;17218;54.070;10.012;2022-09-20T08:46:18;101862.78;;;12.32;100.00
30421;BME280;17218;54.070;10.012;2022-09-20T08:48:46;101861.09;;;12.45;100.00
30421;BME280;17218;54.070;10.012;2022-09-20T08:51:14;101868.03;;;12.56;100.00
30421;BME280;17218;54.070;10.012;2022-09-20T08:53:47;101869.81;;;12.68;100.00
30421;BME280;17218;54.070;10.012;2022-09-20T08:56:14;101869.81;;;12.77;100.00
30421;BME280;17218;54.070;10.012;2022-09-20T08:58:41;101868.09;;;12.84;100.00
30421;BME280;17218;54.070;10.012;2022-09-20T09:01:13;101868.97;;;12.83;100.00
30421;BME280;17218;54.070;10.012;2022-09-20T09:03:43;101859.44;;;12.83;100.00
30421;BME280;17218;54.070;10.012;2022-09-20T09:06:12;101862.91;;;12.82;100.00
30421;BME280;17218;54.070;10.012;2022-09-20T09:08:41;101865.50;;;12.81;100.00
30421;BME280;17218;54.070;10.012;2022-09-20T09:11:12;101859.41;;;12.80;100.00
30421;BME280;17218;54.070;10.012;2022-09-20T09:13:45;101866.31;;;12.69;100.00
30421;BME280;17218;54.070;10.012;2022-09-20T09:16:14;101856.84;;;12.74;100.00
30421;BME280;17218;54.070;10.012;2022-09-20T09:18:42;101860.28;;;12.71;100.00
30421;BME280;17218;54.070;10.012;2022-09-20T09:21:17;101855.97;;;12.70;100.00
30421;BME280;17218;54.070;10.012;2022-09-20T09:23:49;101849.91;;;12.78;100.00
30421;BME280;17218;54.070;10.012;2022-09-20T09:26:20;101853.38;;;12.84;100.00
30421;BME280;17218;54.070;10.012;2022-09-20T09:29:07;101864.63;;;12.91;100.00
30421;BME280;17218;54.070;10.012;2022-09-20T09:31:34;101862.06;;;12.94;100.00
30421;BME280;17218;54.070;10.012;2022-09-20T09:34:02;101870.69;;;12.95;100.00
30421;BME280;17218;54.070;10.012;2022-09-20T09:36:29;101862.91;;;12.92;100.00
30421;BME280;17218;54.070;10.012;2022-09-20T09:39:14;101877.63;;;12.90;100.00
30421;BME280;17218;54.070;10.012;2022-09-20T09:41:43;101862.91;;;13.04;100.00
30421;BME280;17218;54.070;10.012;2022-09-20T09:44:19;101870.72;;;13.06;100.00
30421;BME280;17218;54.070;10.012;2022-09-20T09:46:46;101877.66;;;13.13;100.00
30421;BME280;17218;54.070;10.012;2022-09-20T09:49:15;101874.19;;;13.12;100.00
30421;BME280;17218;54.070;10.012;2022-09-20T09:51:59;101862.94;;;13.18;100.00
30421;BME280;17218;54.070;10.012;2022-09-20T09:54:28;101868.13;;;13.20;100.00
30421;BME280;17218;54.070;10.012;2022-09-20T09:57:08;101862.06;;;13.15;100.00
30421;BME280;17218;54.070;10.012;2022-09-20T09:59:49;101871.59;;;13.17;100.00
30421;BME280;17218;54.070;10.012;2022-09-20T10:02:31;101872.44;;;13.22;100.00
30421;BME280;17218;54.070;10.012;2022-09-20T10:05:07;101870.72;;;13.32;100.00
30421;BME280;17218;54.070;10.012;2022-09-20T10:07:43;101875.91;;;13.32;100.00
30421;BME280;17218;54.070;10.012;2022-09-20T10:10:20;101872.47;;;13.19;100.00
30421;BME280;17218;54.070;10.012;2022-09-20T10:12:59;101865.50;;;13.32;100.00
30421;BME280;17218;54.070;10.012;2022-09-20T10:15:38;101868.97;;;13.52;100.00
30421;BME280;17218;54.070;10.012;2022-09-20T10:18:18;101874.19;;;13.64;100.00
30421;BME280;17218;54.070;10.012;2022-09-20T10:20:58;101864.59;;;13.80;100.00
30421;BME280;17218;54.070;10.012;2022-09-20T10:23:46;101870.59;;;13.98;100.00
30421;BME280;17218;54.070;10.012;2022-09-20T10:26:23;101866.16;;;14.25;100.00
30421;BME280;17218;54.070;10.012;2022-09-20T10:29:01;101871.34;;;14.33;100.00
30421;BME280;17218;54.070;10.012;2022-09-20T10:31:44;101871.38;;;14.25;100.00
30421;BME280;17218;54.070;10.012;2022-09-20T10:34:35;101867.91;;;14.25;100.00
30421;BME280;17218;54.070;10.012;2022-09-20T10:37:09;101870.44;;;14.42;100.00
30421;BME280;17218;54.070;10.012;2022-09-20T10:39:39;101862.56;;;14.51;100.00
30421;BME280;17218;54.070;10.012;2022-09-20T10:42:12;101866.81;;;14.65;100.00
30421;BME280;17218;54.070;10.012;2022-09-20T10:45:09;101862.44;;;14.67;100.00
30421;BME280;17218;54.070;10.012;2022-09-20T10:47:47;101861.56;;;14.70;100.00
30421;BME280;17218;54.070;10.012;2022-09-20T10:50:23;101864.16;;;14.73;100.00
30421;BME280;17218;54.070;10.012;2022-09-20T10:53:06;101861.66;;;14.55;100.00
30421;BME280;17218;54.070;10.012;2022-09-20T10:55:40;101870.47;;;14.34;100.00
30421;BME280;17218;54.070;10.012;2022-09-20T10:58:37;101867.84;;;14.36;100.00
30421;BME280;17218;54.070;10.012;2022-09-20T11:01:13;101861.84;;;14.21;100.00
30421;BME280;17218;54.070;10.012;2022-09-20T11:04:11;101866.97;;;14.34;100.00
30421;BME280;17218;54.070;10.012;2022-09-20T11:06:49;101861.72;;;14.43;100.00
30421;BME280;17218;54.070;10.012;2022-09-20T11:09:23;101867.72;;;14.59;100.00
30421;BME280;17218;54.070;10.012;2022-09-20T11:11:57;101865.88;;;14.77;100.00
30421;BME280;17218;54.070;10.012;2022-09-20T11:14:32;101864.06;;;14.90;100.00
30421;BME280;17218;54.070;10.012;2022-09-20T11:17:06;101873.53;;;15.02;100.00
30421;BME280;17218;54.070;10.012;2022-09-20T11:19:45;101868.75;;;15.53;100.00
30421;BME280;17218;54.070;10.012;2022-09-20T11:22:19;101873.16;;;16.89;100.00
30421;BME280;17218;54.070;10.012;2022-09-20T11:24:51;101869.28;;;19.58;100.00
30421;BME280;17218;54.070;10.012;2022-09-20T11:27:21;101863.38;;;22.45;54.58
30421;BME280;17218;54.070;10.012;2022-09-20T11:29:52;101858.22;;;24.83;56.34
30421;BME280;17218;54.070;10.012;2022-09-20T11:32:24;101857.34;;;26.82;50.83
30421;BME280;17218;54.070;10.012;2022-09-20T11:34:55;101866.00;;;28.72;45.98
30421;BME280;17218;54.070;10.012;2022-09-20T11:37:24;101851.13;;;30.23;41.34
30421;BME280;17218;54.070;10.012;2022-09-20T11:39:58;101850.81;;;31.57;37.93
30421;BME280;17218;54.070;10.012;2022-09-20T11:42:29;101856.56;;;32.74;33.29
30421;BME280;17218;54.070;10.012;2022-09-20T11:44:58;101856.81;;;32.71;33.19
30421;BME280;17218;54.070;10.012;2022-09-20T11:47:28;101852.47;;;33.23;32.06
30421;BME280;17218;54.070;10.012;2022-09-20T11:50:08;101852.22;;;33.67;30.51
30421;BME280;17218;54.070;10.012;2022-09-20T11:52:51;101845.56;;;34.70;29.71
30421;BME280;17218;54.070;10.012;2022-09-20T11:55:33;101852.84;;;35.64;26.37
30421;BME280;17218;54.070;10.012;2022-09-20T11:58:06;101850.59;;;36.69;26.21
30421;BME280;17218;54.070;10.012;2022-09-20T12:00:35;101855.66;;;36.91;23.93
30421;BME280;17218;54.070;10.012;2022-09-20T12:03:06;101852.59;;;37.20;23.40
30421;BME280;17218;54.070;10.012;2022-09-20T12:05:39;101847.59;;;37.34;25.25
30421;BME280;17218;54.070;10.012;2022-09-20T12:08:17;101856.22;;;38.48;23.86
30421;BME280;17218;54.070;10.012;2022-09-20T12:10:54;101860.09;;;39.19;22.89
30421;BME280;17218;54.070;10.012;2022-09-20T12:13:24;101862.47;;;38.48;24.08
30421;BME280;17218;54.070;10.012;2022-09-20T12:15:58;101858.03;;;38.64;22.10
30421;BME280;17218;54.070;10.012;2022-09-20T12:18:35;101857.78;;;37.14;21.61
30421;BME280;17218;54.070;10.012;2022-09-20T12:21:11;101849.56;;;35.71;22.20
30421;BME280;17218;54.070;10.012;2022-09-20T12:26:46;101847.28;;;33.41;23.70
30421;BME280;17218;54.070;10.012;2022-09-20T12:32:45;101856.16;;;36.41;23.85
30421;BME280;17218;54.070;10.012;2022-09-20T12:38:37;101846.59;;;38.37;20.93
30421;BME280;17218;54.070;10.012;2022-09-20T12:41:10;101860.81;;;36.57;23.53
30421;BME280;17218;54.070;10.012;2022-09-20T12:43:48;101857.28;;;35.37;24.31
30421;BME280;17218;54.070;10.012;2022-09-20T12:46:23;101855.38;;;35.09;25.21
30421;BME280;17218;54.070;10.012;2022-09-20T12:48:50;101859.31;;;36.18;25.29
30421;BME280;17218;54.070;10.012;2022-09-20T12:51:35;101857.53;;;35.62;23.53
30421;BME280;17218;54.070;10.012;2022-09-20T12:54:22;101863.44;;;34.22;25.88
30421;BME280;17218;54.070;10.012;2022-09-20T12:56:49;101863.22;;;33.74;25.35
30421;BME280;17218;54.070;10.012;2022-09-20T12:59:21;101856.34;;;34.60;24.49
30421;BME280;17218;54.070;10.012;2022-09-20T13:01:48;101860.22;;;36.27;23.74
30421;BME280;17218;54.070;10.012;2022-09-20T13:04:48;101845.53;;;38.04;21.34
30421;BME280;17218;54.070;10.012;2022-09-20T13:07:45;101842.16;;;39.26;18.61
30421;BME280;17218;54.070;10.012;2022-09-20T13:10:35;101846.06;;;39.47;20.04
30421;BME280;17218;54.070;10.012;2022-09-20T13:13:12;101847.31;;;40.99;19.80
30421;BME280;17218;54.070;10.012;2022-09-20T13:15:46;101847.81;;;40.72;16.48
30421;BME280;17218;54.070;10.012;2022-09-20T13:18:15;101849.75;;;42.05;18.48
30421;BME280;17218;54.070;10.012;2022-09-20T13:20:42;101845.47;;;43.31;18.06
30421;BME280;17218;54.070;10.012;2022-09-20T13:23:16;101843.44;;;44.28;16.93
30421;BME280;17218;54.070;10.012;2022-09-20T13:25:46;101851.28;;;44.97;16.76
30421;BME280;17218;54.070;10.012;2022-09-20T13:28:20;101856.66;;;43.83;15.87
30421;BME280;17218;54.070;10.012;2022-09-20T13:31:15;101862.75;;;40.53;18.36
30421;BME280;17218;54.070;10.012;2022-09-20T13:33:41;101852.13;;;38.10;19.41
30421;BME280;17218;54.070;10.012;2022-09-20T13:36:08;101856.69;;;36.45;21.92
30421;BME280;17218;54.070;10.012;2022-09-20T13:38:35;101852.69;;;34.51;24.00
30421;BME280;17218;54.070;10.012;2022-09-20T13:41:05;101853.34;;;32.59;25.99
30421;BME280;17218;54.070;10.012;2022-09-20T13:43:36;101864.66;;;31.85;26.75
30421;BME280;17218;54.070;10.012;2022-09-20T13:46:07;101855.16;;;32.04;24.80
30421;BME280;17218;54.070;10.012;2022-09-20T13:48:34;101845.84;;;33.05;24.58